Time;durP1;ratioP1;P1;durP2;ratioP2;P2;SDS_P1;SDS_P2;PMS_P1;PMS_P2;Temp;Humidity;BMP_temperature;BMP_pressure;BME280_temperature;BME280_humidity;BME280_pressure;Samples;Min_cycle;Max_cycle;Signal;HPM_P1;HPM_P2
2022/09/22 00:01:00;;;;;;;13.02;5.88;;;8.50;88.20;;;;;;5053282;28;20047;-38
2022/09/22 00:03:49;;;;;;;12.35;6.75;;;8.50;88.20;;;;;;5054440;28;20049;-38
2022/09/22 00:06:18;;;;;;;8.55;5.45;;;8.50;88.30;;;;;;5053231;28;20091;-38
2022/09/22 00:08:47;;;;;;;7.60;4.97;;;8.50;88.40;;;;;;5054669;28;20366;-38
2022/09/22 00:11:16;;;;;;;12.20;6.03;;;8.40;88.50;;;;;;5054696;28;20425;-38
2022/09/22 00:13:58;;;;;;;9.73;6.00;;;8.40;88.60;;;;;;5054393;28;20025;-38
2022/09/22 00:16:27;;;;;;;11.73;5.85;;;8.40;88.70;;;;;;5054308;28;20018;-38
2022/09/22 00:18:53;;;;;;;13.13;5.80;;;8.40;88.60;;;;;;5054242;28;20079;-38
2022/09/22 00:21:21;;;;;;;9.27;5.97;;;8.40;88.60;;;;;;5054222;28;20025;-38
2022/09/22 00:23:47;;;;;;;8.02;6.40;;;8.40;88.60;;;;;;5054456;28;20024;-38
2022/09/22 00:26:16;;;;;;;11.90;6.65;;;8.40;88.70;;;;;;5054355;28;20029;-39
2022/09/22 00:28:44;;;;;;;15.40;5.82;;;8.40;88.70;;;;;;5054209;28;20342;-38
2022/09/22 00:31:20;;;;;;;10.50;6.45;;;8.40;88.80;;;;;;5054418;28;20028;-38
2022/09/22 00:33:46;;;;;;;11.55;5.75;;;8.40;88.80;;;;;;5054409;28;20365;-38
2022/09/22 00:36:13;;;;;;;14.80;7.07;;;8.30;88.80;;;;;;5053863;28;20021;-38
2022/09/22 00:38:39;;;;;;;6.15;5.18;;;8.40;88.80;;;;;;5054094;28;20473;-39
2022/09/22 00:41:09;;;;;;;12.05;6.18;;;8.30;88.90;;;;;;5053712;28;20209;-39
2022/09/22 00:43:37;;;;;;;9.98;6.30;;;8.30;89.00;;;;;;5054354;28;20025;-38
2022/09/22 00:46:16;;;;;;;10.73;5.20;;;8.30;89.00;;;;;;5052314;28;20556;-40
2022/09/22 00:48:57;;;;;;;9.93;6.60;;;8.30;89.00;;;;;;5053615;28;20035;-37
2022/09/22 00:51:26;;;;;;;7.22;5.72;;;8.30;89.10;;;;;;5053603;28;20032;-38
2022/09/22 00:53:53;;;;;;;11.63;6.97;;;8.30;89.00;;;;;;5053753;28;20381;-38
2022/09/22 00:56:26;;;;;;;11.80;5.82;;;8.30;89.10;;;;;;5052141;28;20087;-38
2022/09/22 00:58:59;;;;;;;10.77;5.75;;;8.30;89.10;;;;;;5051551;28;20075;-38
2022/09/22 01:01:25;;;;;;;8.52;5.78;;;8.20;89.20;;;;;;5053440;28;20021;-38
2022/09/22 01:03:51;;;;;;;7.93;5.10;;;8.20;89.20;;;;;;5053268;28;20071;-38
2022/09/22 01:06:22;;;;;;;10.13;6.95;;;8.20;89.30;;;;;;5053230;28;20027;-38
2022/09/22 01:08:48;;;;;;;;;;;8.20;89.40;;;;;;5053530;28;20021;-38
2022/09/22 01:11:14;;;;;;;13.57;7.50;;;8.20;89.30;;;;;;5053118;28;19916;-38
2022/09/22 01:13:54;;;;;;;11.75;6.93;;;8.20;89.10;;;;;;5051834;28;20029;-38
2022/09/22 01:16:34;;;;;;;9.38;6.18;;;8.20;89.20;;;;;;5053323;28;20021;-39
2022/09/22 01:19:20;;;;;;;;;;;8.20;89.20;;;;;;5053970;28;20025;-39
2022/09/22 01:21:45;;;;;;;7.75;5.82;;;8.10;89.30;;;;;;5053239;28;20327;-39
2022/09/22 01:24:23;;;;;;;9.18;5.72;;;8.10;89.30;;;;;;5053127;28;20045;-39
2022/09/22 01:27:31;;;;;;;15.02;6.28;;;8.10;89.40;;;;;;5052928;28;20021;-38
2022/09/22 01:30:20;;;;;;;19.80;8.40;;;8.00;89.40;;;;;;5052431;28;20116;-38
2022/09/22 01:33:01;;;;;;;11.98;6.78;;;8.00;89.50;;;;;;5052921;28;20563;-38
2022/09/22 01:35:48;;;;;;;10.13;7.32;;;8.00;89.50;;;;;;5051594;28;20020;-38
2022/09/22 01:38:37;;;;;;;13.63;6.93;;;8.00;89.60;;;;;;5052895;28;20025;-38
2022/09/22 01:41:09;;;;;;;8.18;5.78;;;7.90;89.60;;;;;;5051553;28;20067;-38
2022/09/22 01:43:58;;;;;;;12.15;6.68;;;7.90;89.70;;;;;;5053127;28;20025;-38
2022/09/22 01:46:36;;;;;;;17.27;7.57;;;7.90;89.80;;;;;;5052760;28;20389;-38
2022/09/22 01:49:07;;;;;;;12.70;6.70;;;7.90;89.70;;;;;;5052704;28;20061;-38
2022/09/22 01:51:47;;;;;;;18.98;7.68;;;7.90;89.80;;;;;;5052793;28;20033;-38
2022/09/22 01:54:21;;;;;;;14.77;7.60;;;7.80;89.90;;;;;;5052882;28;20021;-38
2022/09/22 01:56:54;;;;;;;12.02;6.85;;;7.90;90.00;;;;;;5052918;28;20114;-38
2022/09/22 01:59:24;;;;;;;13.18;8.38;;;7.80;90.00;;;;;;5052902;28;20048;-38
2022/09/22 02:02:01;;;;;;;11.75;6.97;;;7.80;90.20;;;;;;5051043;28;20021;-38
2022/09/22 02:04:44;;;;;;;17.73;7.07;;;7.80;90.20;;;;;;5052704;28;20056;-38
2022/09/22 02:07:24;;;;;;;13.55;7.50;;;7.80;90.30;;;;;;5052767;28;20071;-38
2022/09/22 02:09:50;;;;;;;9.98;7.45;;;7.90;90.40;;;;;;5051050;28;20384;-38
2022/09/22 02:12:17;;;;;;;11.02;6.93;;;7.80;90.30;;;;;;5055532;28;20021;-38
2022/09/22 02:14:45;;;;;;;13.82;7.05;;;7.80;90.30;;;;;;5056384;28;20100;-39
2022/09/22 02:17:12;;;;;;;10.70;6.97;;;7.80;90.30;;;;;;5056317;28;20036;-39
2022/09/22 02:19:39;;;;;;;13.55;7.55;;;7.80;90.40;;;;;;5056070;28;20075;-39
2022/09/22 02:22:06;;;;;;;12.27;7.63;;;7.80;90.30;;;;;;5056555;28;20110;-39
2022/09/22 02:24:42;;;;;;;13.10;7.22;;;7.70;90.30;;;;;;5056188;28;20028;-39
2022/09/22 02:27:17;;;;;;;16.20;7.97;;;7.70;90.40;;;;;;5056164;28;20025;-38
2022/09/22 02:29:49;;;;;;;13.73;8.02;;;7.70;90.50;;;;;;5056133;28;20029;-38
2022/09/22 02:32:16;;;;;;;14.85;7.93;;;7.70;90.60;;;;;;5056528;28;20036;-38
2022/09/22 02:34:45;;;;;;;12.95;5.97;;;7.70;90.60;;;;;;5056089;28;20326;-39
2022/09/22 02:37:29;;;;;;;10.82;6.40;;;7.70;90.50;;;;;;5055938;28;20499;-39
2022/09/22 02:40:26;;;;;;;17.30;8.52;;;7.70;90.60;;;;;;5056087;28;20020;-39
2022/09/22 02:43:18;;;;;;;17.27;8.13;;;7.60;90.50;;;;;;5056166;28;20033;-38
2022/09/22 02:45:49;;;;;;;7.97;6.00;;;7.60;90.60;;;;;;5056174;28;20033;-38
2022/09/22 02:48:27;;;;;;;8.35;6.03;;;7.60;90.40;;;;;;5055864;28;20029;-38
2022/09/22 02:50:53;;;;;;;12.60;6.18;;;7.50;90.40;;;;;;5055989;28;20128;-38
2022/09/22 02:53:19;;;;;;;7.75;5.82;;;7.40;90.40;;;;;;5055605;28;20461;-38
2022/09/22 02:55:46;;;;;;;13.23;6.25;;;7.50;90.50;;;;;;5055472;28;20021;-37
2022/09/22 02:58:14;;;;;;;11.68;6.65;;;7.40;90.50;;;;;;5055764;28;20461;-38
2022/09/22 03:00:41;;;;;;;10.43;6.15;;;7.40;90.50;;;;;;5054204;28;20029;-43
2022/09/22 03:03:06;;;;;;;7.65;6.03;;;7.50;90.60;;;;;;5055430;28;20059;-38
2022/09/22 03:05:32;;;;;;;11.55;6.40;;;7.40;90.40;;;;;;5055624;28;20429;-38
2022/09/22 03:07:57;;;;;;;8.75;5.45;;;7.30;90.20;;;;;;5055680;28;20072;-38
2022/09/22 03:10:23;;;;;;;13.98;7.13;;;7.30;90.20;;;;;;5055439;28;20462;-39
2022/09/22 03:12:49;;;;;;;11.70;6.57;;;7.30;90.30;;;;;;5054079;28;20037;-39
2022/09/22 03:15:15;;;;;;;12.30;6.72;;;7.30;90.40;;;;;;5055263;28;20017;-38
2022/09/22 03:17:41;;;;;;;12.95;7.32;;;7.30;90.40;;;;;;5055247;28;20354;-38
2022/09/22 03:20:14;;;;;;;10.55;7.85;;;7.30;90.60;;;;;;5054709;28;20037;-39
2022/09/22 03:22:40;;;;;;;12.73;7.15;;;7.30;90.60;;;;;;5054847;28;20032;-39
2022/09/22 03:25:07;;;;;;;10.35;6.68;;;7.30;90.60;;;;;;5055651;28;20029;-39
2022/09/22 03:27:33;;;;;;;13.27;8.40;;;7.30;90.70;;;;;;5055343;28;20029;-39
2022/09/22 03:29:58;;;;;;;19.42;7.57;;;7.30;90.80;;;;;;5055282;28;20436;-38
2022/09/22 03:32:24;;;;;;;14.05;8.63;;;7.20;90.80;;;;;;5055626;28;20021;-37
2022/09/22 03:34:50;;;;;;;12.93;7.28;;;7.20;90.90;;;;;;5055268;28;20074;-38
2022/09/22 03:37:16;;;;;;;16.85;10.15;;;7.20;91.00;;;;;;5055386;28;20025;-39
2022/09/22 03:39:42;;;;;;;18.52;8.57;;;7.20;91.00;;;;;;5055230;28;20412;-37
2022/09/22 03:42:08;;;;;;;12.60;8.05;;;7.20;91.10;;;;;;5055252;28;20036;-38
2022/09/22 03:44:34;;;;;;;13.30;7.70;;;7.10;91.10;;;;;;5055639;28;20025;-37
2022/09/22 03:46:59;;;;;;;15.57;7.97;;;7.10;91.20;;;;;;5053974;28;20435;-39
2022/09/22 03:49:25;;;;;;;12.90;7.75;;;7.10;91.20;;;;;;5053427;28;20044;-38
2022/09/22 03:51:52;;;;;;;14.85;8.27;;;7.10;91.30;;;;;;5054992;28;20021;-38
2022/09/22 03:54:19;;;;;;;13.20;8.82;;;7.10;91.40;;;;;;5054916;28;20484;-38
2022/09/22 03:56:44;;;;;;;17.80;8.82;;;7.10;91.60;;;;;;5055839;28;20033;-38
2022/09/22 03:59:10;;;;;;;13.15;8.88;;;7.20;91.60;;;;;;5054901;28;20028;-39
2022/09/22 04:01:36;;;;;;;18.52;7.68;;;7.20;91.70;;;;;;5054763;28;20492;-39
2022/09/22 04:04:03;;;;;;;17.02;8.63;;;7.20;91.80;;;;;;5054799;28;20040;-38
2022/09/22 04:06:29;;;;;;;14.07;8.95;;;7.20;91.80;;;;;;5054627;28;20326;-38
2022/09/22 04:08:54;;;;;;;12.65;8.27;;;7.20;91.80;;;;;;5054455;28;20021;-38
2022/09/22 04:11:22;;;;;;;14.75;9.30;;;7.20;91.80;;;;;;5054301;28;20484;-38
2022/09/22 04:13:47;;;;;;;11.95;8.32;;;7.20;91.80;;;;;;5054344;28;20028;-43
2022/09/22 04:16:13;;;;;;;15.63;8.35;;;7.20;91.80;;;;;;5053480;28;20350;-38
2022/09/22 04:18:39;;;;;;;12.38;8.50;;;7.20;91.90;;;;;;5054165;28;20029;-38
2022/09/22 04:21:06;;;;;;;17.30;8.52;;;7.20;91.90;;;;;;5054367;28;20029;-38
2022/09/22 04:23:32;;;;;;;14.48;8.70;;;7.20;91.90;;;;;;5054643;28;20025;-38
2022/09/22 04:25:57;;;;;;;18.40;9.35;;;7.20;91.90;;;;;;5054142;28;20020;-38
2022/09/22 04:28:23;;;;;;;13.02;8.45;;;7.20;91.90;;;;;;5053901;28;20075;-38
2022/09/22 04:30:49;;;;;;;15.25;9.43;;;7.20;91.90;;;;;;5054300;28;20029;-38
2022/09/22 04:33:15;;;;;;;12.70;8.70;;;7.20;91.90;;;;;;5053215;28;20021;-38
2022/09/22 04:35:41;;;;;;;13.82;8.50;;;7.10;91.90;;;;;;5053887;28;20025;-38
2022/09/22 04:38:07;;;;;;;23.60;9.70;;;7.10;91.90;;;;;;5054936;28;20366;-38
2022/09/22 04:40:32;;;;;;;16.27;8.65;;;7.20;92.00;;;;;;5053801;28;20052;-38
2022/09/22 04:42:58;;;;;;;15.02;8.93;;;7.20;92.00;;;;;;5054218;28;20025;-38
2022/09/22 04:45:24;;;;;;;18.02;9.52;;;7.10;91.90;;;;;;5053939;28;20195;-38
2022/09/22 04:47:51;;;;;;;15.57;9.15;;;7.10;91.90;;;;;;5052526;28;20111;-38
2022/09/22 04:50:20;;;;;;;42.50;25.10;;;7.00;91.90;;;;;;5053555;28;20489;-38
2022/09/22 04:52:47;;;;;;;14.57;7.75;;;7.10;92.00;;;;;;5053473;28;20025;-38
2022/09/22 04:55:14;;;;;;;11.35;8.18;;;7.10;91.90;;;;;;5053539;28;20436;-38
2022/09/22 04:57:49;;;;;;;21.60;8.70;;;7.10;92.00;;;;;;5053518;28;20024;-39
2022/09/22 05:00:16;;;;;;;14.23;8.90;;;7.10;92.00;;;;;;5053490;28;20052;-40
2022/09/22 17:56:03;;;;;;;6.45;3.00;;;14.80;60.10;;;;;;5070194;28;20052;-39
2022/09/22 17:58:29;;;;;;;6.07;2.75;;;14.80;61.30;;;;;;5070078;28;20021;-39
2022/09/22 18:00:55;;;;;;;5.07;2.83;;;14.70;61.30;;;;;;5069728;28;20136;-39
2022/09/22 18:03:20;;;;;;;5.07;3.05;;;14.70;61.40;;;;;;5068283;28;20489;-41
2022/09/22 18:05:51;;;;;;;7.57;3.17;;;14.70;61.90;;;;;;5070242;28;20029;-39
2022/09/22 18:08:18;;;;;;;5.30;2.90;;;14.50;61.90;;;;;;5069684;28;20023;-38
2022/09/22 18:10:45;;;;;;;7.38;3.80;;;14.50;62.60;;;;;;5074153;28;20055;-38
2022/09/22 18:13:10;;;;;;;9.50;4.25;;;14.40;63.10;;;;;;5069576;28;20507;-38
2022/09/22 18:15:36;;;;;;;7.45;3.83;;;14.30;63.40;;;;;;5069112;28;20028;-38
2022/09/22 18:18:02;;;;;;;7.50;5.25;;;14.30;63.90;;;;;;5069966;28;20060;-39
2022/09/22 18:20:28;;;;;;;10.65;4.80;;;14.30;64.50;;;;;;5070303;28;20110;-40
2022/09/22 18:22:56;;;;;;;11.15;5.15;;;14.20;65.10;;;;;;5069427;28;20448;-38
2022/09/22 18:25:24;;;;;;;8.52;4.85;;;14.10;65.70;;;;;;5068818;28;20025;-38
2022/09/22 18:27:52;;;;;;;12.15;6.30;;;14.10;66.10;;;;;;5069234;28;20028;-39
2022/09/22 18:30:18;;;;;;;8.93;5.40;;;14.00;66.50;;;;;;5069133;28;20076;-39
2022/09/22 18:32:44;;;;;;;8.25;4.45;;;14.00;67.00;;;;;;5069404;28;20024;-39
2022/09/22 18:35:11;;;;;;;8.15;5.28;;;13.90;67.40;;;;;;5068815;28;20540;-38
2022/09/22 18:37:37;;;;;;;12.98;5.35;;;13.90;67.90;;;;;;5068582;28;20036;-38
2022/09/22 18:40:04;;;;;;;12.52;5.60;;;13.80;68.40;;;;;;5068617;28;20029;-40
2022/09/22 18:42:31;;;;;;;11.75;6.18;;;13.80;68.80;;;;;;5068589;28;20068;-38
2022/09/22 18:44:57;;;;;;;20.48;7.32;;;13.70;69.10;;;;;;5067145;28;20029;-40
2022/09/22 18:47:23;;;;;;;9.68;5.55;;;13.60;69.50;;;;;;5068278;28;20178;-40
2022/09/22 18:49:52;;;;;;;11.57;5.43;;;13.60;69.80;;;;;;5067092;28;20017;-41
2022/09/22 18:52:22;;;;;;;9.52;5.53;;;13.50;70.20;;;;;;5051076;28;20025;-49
2022/09/22 18:54:51;;;;;;;10.95;5.72;;;13.50;70.50;;;;;;5068290;28;20024;-41
2022/09/22 18:57:19;;;;;;;15.77;6.63;;;13.40;70.80;;;;;;5065793;28;20025;-39
2022/09/22 18:59:45;;;;;;;9.98;6.78;;;13.30;70.90;;;;;;5055043;28;20040;-39
2022/09/22 19:02:11;;;;;;;12.38;6.60;;;13.30;71.20;;;;;;5053708;28;20465;-39
2022/09/22 19:04:37;;;;;;;12.60;6.90;;;13.20;71.50;;;;;;5053669;28;20094;-38
2022/09/22 19:09:49;;;;;;;11.35;5.80;;;13.00;71.70;;;;;;5054830;28;20025;-39
2022/09/22 19:12:14;;;;;;;14.77;7.63;;;13.00;72.00;;;;;;5055264;28;20528;-40
2022/09/22 19:14:40;;;;;;;12.30;7.20;;;13.00;72.50;;;;;;5055335;28;20048;-39
2022/09/22 19:17:08;;;;;;;12.77;7.68;;;12.90;72.90;;;;;;5055263;28;20071;-39
2022/09/22 19:19:38;;;;;;;13.30;7.60;;;12.90;73.20;;;;;;5055286;28;20408;-38
2022/09/22 19:22:08;;;;;;;13.57;6.75;;;12.80;73.40;;;;;;5054038;28;20323;-38
2022/09/22 19:24:44;;;;;;;12.07;6.75;;;12.80;73.80;;;;;;5054980;28;20455;-39
2022/09/22 19:27:13;;;;;;;14.18;7.25;;;12.70;74.00;;;;;;5056274;28;20431;-38
2022/09/22 19:29:38;;;;;;;12.13;7.18;;;12.70;74.30;;;;;;5054587;28;20057;-39
2022/09/22 19:32:05;;;;;;;10.98;6.53;;;12.60;74.10;;;;;;5056664;28;20025;-39
2022/09/22 19:34:31;;;;;;;11.90;8.32;;;12.60;74.30;;;;;;5053898;28;20072;-42
2022/09/22 19:36:57;;;;;;;13.40;8.43;;;12.60;74.60;;;;;;5055150;28;20075;-39
2022/09/22 19:39:22;;;;;;;11.38;7.13;;;12.50;74.60;;;;;;5054874;28;20439;-39
2022/09/22 19:41:49;;;;;;;14.02;8.57;;;12.40;74.80;;;;;;5054851;28;20100;-39
2022/09/22 19:44:16;;;;;;;15.27;8.25;;;12.30;74.90;;;;;;5054387;28;20029;-38
2022/09/22 19:46:46;;;;;;;12.57;8.10;;;12.30;74.90;;;;;;5054743;28;20331;-38
2022/09/22 19:49:12;;;;;;;13.52;8.23;;;12.30;75.10;;;;;;5055012;28;20113;-47
2022/09/22 19:51:38;;;;;;;12.18;7.95;;;12.30;75.20;;;;;;5054682;28;20040;-39
2022/09/22 19:54:06;;;;;;;10.45;7.35;;;12.30;75.50;;;;;;5055347;28;20477;-40
2022/09/22 19:56:31;;;;;;;11.10;7.25;;;12.30;75.70;;;;;;5053904;28;20158;-39
2022/09/22 19:58:58;;;;;;;14.23;6.45;;;12.20;75.70;;;;;;5053979;28;20501;-39
2022/09/22 20:01:34;;;;;;;16.67;8.30;;;12.20;75.90;;;;;;5056108;28;20029;-39
2022/09/22 20:04:00;;;;;;;14.38;7.80;;;12.10;76.00;;;;;;5054714;28;20054;-39
2022/09/22 20:06:26;;;;;;;13.18;7.72;;;12.10;75.90;;;;;;5054294;28;20032;-39
2022/09/22 20:09:01;;;;;;;13.65;7.45;;;12.00;75.90;;;;;;5053728;28;20021;-39
2022/09/22 20:11:39;;;;;;;13.52;8.20;;;12.00;75.90;;;;;;5037594;28;20052;-39
2022/09/22 20:14:21;;;;;;;12.75;7.20;;;12.00;76.10;;;;;;5053604;28;20385;-38
2022/09/22 20:16:52;;;;;;;16.17;8.15;;;11.90;76.50;;;;;;5054567;28;20052;-38
2022/09/22 20:19:19;;;;;;;14.13;6.85;;;11.80;76.90;;;;;;5052779;28;20053;-39
2022/09/22 20:21:46;;;;;;;16.05;7.40;;;11.80;76.80;;;;;;5053787;28;20035;-39
2022/09/22 20:24:14;;;;;;;11.48;6.55;;;11.70;76.90;;;;;;5053261;28;20037;-39
2022/09/22 20:26:41;;;;;;;12.18;6.63;;;11.70;77.10;;;;;;5054422;28;20418;-38
2022/09/22 20:29:09;;;;;;;9.05;5.78;;;11.70;77.20;;;;;;5053415;28;20116;-39
2022/09/22 20:31:37;;;;;;;11.88;6.68;;;11.60;77.30;;;;;;5053347;28;20497;-41
2022/09/22 20:34:06;;;;;;;10.32;6.22;;;11.60;77.40;;;;;;5053251;28;20067;-39
2022/09/22 20:36:35;;;;;;;10.77;6.40;;;11.60;77.60;;;;;;5053883;28;20542;-38
2022/09/22 20:39:01;;;;;;;10.30;6.68;;;11.60;77.70;;;;;;5053672;28;20021;-39
2022/09/22 20:41:26;;;;;;;10.57;7.15;;;11.50;77.90;;;;;;5054119;28;20067;-38
2022/09/22 20:43:52;;;;;;;12.65;7.57;;;11.50;78.10;;;;;;5035731;28;20029;-39
2022/09/22 20:46:18;;;;;;;11.13;5.97;;;11.50;78.10;;;;;;5053472;28;20118;-38
2022/09/22 20:48:44;;;;;;;13.63;5.88;;;11.40;78.50;;;;;;5054073;28;20525;-38
2022/09/22 20:51:11;;;;;;;9.85;6.35;;;11.40;78.80;;;;;;5052170;28;20031;-39
2022/09/22 20:53:38;;;;;;;11.32;6.70;;;11.30;79.10;;;;;;5053811;28;20025;-38
2022/09/22 20:56:07;;;;;;;9.23;6.22;;;11.30;79.40;;;;;;5053962;28;20139;-38
2022/09/22 20:58:39;;;;;;;11.57;6.65;;;11.30;79.50;;;;;;5053650;28;20108;-39
2022/09/22 21:01:05;;;;;;;12.27;7.05;;;11.30;79.70;;;;;;5053783;28;20434;-39
2022/09/22 21:03:31;;;;;;;9.70;6.65;;;11.30;79.90;;;;;;5053843;28;20088;-38
2022/09/22 21:06:01;;;;;;;14.15;6.75;;;11.30;80.10;;;;;;5053603;28;20029;-38
2022/09/22 21:11:16;;;;;;;16.98;8.85;;;11.30;80.20;;;;;;5053637;28;20162;-38
2022/09/22 21:13:42;;;;;;;13.43;6.90;;;11.20;80.20;;;;;;5053624;28;20059;-38
2022/09/22 21:16:09;;;;;;;11.30;6.38;;;11.20;80.20;;;;;;5053403;28;20047;-40
2022/09/22 21:18:36;;;;;;;17.33;7.43;;;11.10;80.20;;;;;;5052995;28;20028;-38
2022/09/22 21:21:04;;;;;;;18.08;8.05;;;11.00;80.20;;;;;;5053048;28;20024;-38
2022/09/22 21:23:31;;;;;;;11.57;5.78;;;11.10;80.10;;;;;;5053489;28;20036;-38
2022/09/22 21:26:05;;;;;;;8.73;5.53;;;11.00;80.20;;;;;;5053042;28;20060;-39
2022/09/22 21:28:32;;;;;;;10.52;7.20;;;11.00;80.40;;;;;;5053005;28;20025;-38
2022/09/22 21:31:06;;;;;;;11.13;6.20;;;10.90;80.60;;;;;;5052899;28;20465;-39
2022/09/22 21:33:32;;;;;;;9.85;5.75;;;11.00;80.60;;;;;;5053082;28;20094;-39
2022/09/22 21:36:13;;;;;;;13.55;6.70;;;10.90;80.70;;;;;;5052956;28;20028;-39
2022/09/22 21:38:52;;;;;;;12.20;6.95;;;10.90;80.70;;;;;;5053578;28;20032;-39
2022/09/22 21:41:22;;;;;;;14.32;7.80;;;10.90;80.80;;;;;;5053157;28;20489;-38
2022/09/22 21:43:49;;;;;;;16.20;9.00;;;10.90;80.70;;;;;;5052868;28;20021;-38
2022/09/22 21:46:23;;;;;;;12.55;6.85;;;10.90;80.70;;;;;;5052667;28;20469;-38
2022/09/22 21:48:48;;;;;;;12.95;7.15;;;10.80;80.70;;;;;;5053029;28;20057;-38
2022/09/22 21:51:20;;;;;;;13.43;6.63;;;10.90;80.70;;;;;;5052723;28;20044;-38
2022/09/22 21:53:51;;;;;;;13.13;7.68;;;10.80;80.70;;;;;;5053213;28;20112;-37
2022/09/22 21:56:18;;;;;;;15.05;7.53;;;10.80;80.80;;;;;;5052951;28;20082;-40
2022/09/22 21:58:46;;;;;;;14.88;8.18;;;10.80;80.80;;;;;;5053111;28;20029;-39
2022/09/22 22:01:19;;;;;;;15.75;7.47;;;10.80;80.80;;;;;;5053114;28;20100;-38
2022/09/22 22:03:46;;;;;;;12.55;7.85;;;10.80;80.80;;;;;;5052875;28;20032;-38
2022/09/22 22:06:18;;;;;;;12.23;9.32;;;10.80;80.70;;;;;;5051278;28;20029;-38
2022/09/22 22:08:52;;;;;;;14.95;8.98;;;10.80;80.70;;;;;;5051688;28;20017;-39
2022/09/22 22:11:22;;;;;;;16.75;8.18;;;10.80;80.60;;;;;;5053252;28;20079;-39
2022/09/22 22:13:58;;;;;;;10.68;6.68;;;10.80;80.60;;;;;;5053248;28;20428;-39
2022/09/22 22:16:31;;;;;;;14.02;7.22;;;10.80;80.60;;;;;;5053202;28;20037;-39
2022/09/22 22:18:57;;;;;;;13.32;7.25;;;10.80;80.70;;;;;;5053318;28;20036;-39
2022/09/22 22:21:25;;;;;;;10.50;6.72;;;10.80;80.70;;;;;;5053042;28;20025;-39
2022/09/22 22:23:54;;;;;;;9.80;5.38;;;10.70;80.70;;;;;;5052704;28;20112;-37
2022/09/22 22:26:24;;;;;;;14.13;5.40;;;10.70;80.80;;;;;;5053372;28;20025;-38
2022/09/22 22:28:51;;;;;;;13.05;5.82;;;10.70;80.70;;;;;;5052777;28;20025;-38
2022/09/22 22:31:21;;;;;;;8.27;5.28;;;10.60;80.70;;;;;;5052954;28;20028;-38
2022/09/22 22:33:48;;;;;;;;;;;10.60;80.90;;;;;;5055465;28;20021;-38
2022/09/22 22:36:16;;;;;;;8.60;5.28;;;10.60;81.10;;;;;;5056212;28;19904;-37
2022/09/22 22:38:46;;;;;;;14.18;5.40;;;10.50;81.30;;;;;;5056348;28;20025;-38
2022/09/22 22:41:14;;;;;;;8.52;4.35;;;10.40;81.50;;;;;;5056173;28;20527;-38
2022/09/22 22:43:41;;;;;;;10.60;5.28;;;10.50;81.50;;;;;;5056252;28;20044;-38
2022/09/22 22:46:08;;;;;;;8.05;4.90;;;10.40;81.60;;;;;;5055949;28;20050;-38
2022/09/22 22:48:36;;;;;;;10.02;4.93;;;10.40;81.70;;;;;;5055897;28;20159;-37
2022/09/22 22:51:20;;;;;;;9.40;4.97;;;10.40;81.80;;;;;;5055897;28;20062;-38
2022/09/22 22:53:47;;;;;;;8.98;5.32;;;10.40;81.80;;;;;;5056137;28;20116;-37
2022/09/22 22:56:15;;;;;;;10.55;4.97;;;10.40;81.80;;;;;;5055738;28;20021;-38
2022/09/22 22:58:42;;;;;;;8.43;5.32;;;10.40;81.80;;;;;;5055891;28;20033;-37
2022/09/22 23:01:14;;;;;;;8.38;4.82;;;10.30;81.80;;;;;;5055600;28;20465;-39
2022/09/22 23:03:49;;;;;;;8.15;5.00;;;10.30;81.90;;;;;;5055578;28;20025;-38
2022/09/22 23:06:27;;;;;;;8.57;4.40;;;10.30;81.90;;;;;;5055501;28;20466;-38
2022/09/22 23:08:53;;;;;;;8.55;4.95;;;10.30;81.90;;;;;;5055560;28;20031;-38
2022/09/22 23:11:21;;;;;;;6.10;4.07;;;10.30;81.80;;;;;;5055555;28;20524;-38
2022/09/22 23:13:51;;;;;;;10.93;5.40;;;10.30;81.60;;;;;;5055581;28;20376;-38
2022/09/22 23:16:22;;;;;;;6.80;4.10;;;10.30;81.60;;;;;;5055178;28;20112;-38
2022/09/22 23:18:49;;;;;;;9.95;4.82;;;10.30;81.50;;;;;;5055380;28;20393;-37
2022/09/22 23:21:17;;;;;;;5.90;4.18;;;10.30;81.50;;;;;;5055159;28;20414;-37
2022/09/22 23:23:43;;;;;;;7.25;4.90;;;10.30;81.30;;;;;;5055050;28;20357;-37
2022/09/22 23:26:11;;;;;;;9.40;4.55;;;10.40;81.10;;;;;;5055270;28;20033;-37
2022/09/22 23:28:38;;;;;;;6.40;4.05;;;10.40;81.00;;;;;;5055608;28;20110;-37
2022/09/22 23:31:09;;;;;;;9.93;5.78;;;10.40;80.80;;;;;;5055249;28;20424;-38
2022/09/22 23:33:46;;;;;;;11.02;5.85;;;10.40;80.70;;;;;;5053613;28;20021;-44
2022/09/22 23:36:15;;;;;;;6.03;3.95;;;10.40;80.50;;;;;;5054915;28;20033;-37
2022/09/22 23:38:42;;;;;;;4.80;4.00;;;10.50;80.30;;;;;;5055911;28;20414;-38
2022/09/22 23:41:09;;;;;;;7.70;4.25;;;10.40;80.20;;;;;;5054744;28;20500;-39
2022/09/22 23:43:35;;;;;;;7.22;4.40;;;10.40;80.20;;;;;;5054632;28;20024;-38
2022/09/22 23:46:03;;;;;;;10.57;5.18;;;10.40;80.10;;;;;;5054594;28;20044;-39
2022/09/22 23:48:30;;;;;;;9.82;4.63;;;10.40;80.10;;;;;;5054687;28;20037;-39
2022/09/22 23:50:57;;;;;;;7.03;3.72;;;10.40;80.00;;;;;;5054615;28;20041;-39
2022/09/22 23:53:27;;;;;;;7.70;4.97;;;10.40;79.90;;;;;;5054860;28;20495;-38
2022/09/22 23:55:53;;;;;;;5.07;3.70;;;10.40;79.90;;;;;;5054853;28;20495;-38
2022/09/22 23:58:19;;;;;;;7.93;4.43;;;10.40;80.10;;;;;;5054942;28;20029;-38
